Baltimore — WD19338 — position and weather

sailwx.info

Track history (hours):
 
Tides and Currents Weather Stations Pressure Air Temp Water Temp Dewpoint Dewpoint Depression Visibility Wind Speed Wind Dir Waves Ship Positions

Baltimore

Last reported at 2017-Sep-24 10:01 UTC. Time now 2017-Sep-24 10:24 UTC.
Position N 39°52' W 075°13'.

Length 33 m.

Type: Tug. MMSI: 338602000.

Date/timePositionNaut miles runAvg speedWind from/ knotsBaromVisibWave heightAir tempDewpointWater temp
2017-Sep-24 10:01N 39°52' W 075°13'0 0.1
2017-Sep-24 09:31N 39°52' W 075°13'0 0.0
2017-Sep-24 09:01N 39°52' W 075°13'0 0.0
2017-Sep-24 08:30N 39°52' W 075°13'0 0.0
2017-Sep-24 08:00N 39°52' W 075°13'0 0.0
2017-Sep-24 07:31N 39°52' W 075°13'0 0.0
2017-Sep-24 07:00N 39°52' W 075°13'0 0.0
2017-Sep-24 06:30N 39°52' W 075°13'0 0.0
2017-Sep-24 06:00N 39°52' W 075°13'0 0.0
2017-Sep-24 05:31N 39°52' W 075°13'0 0.0
2017-Sep-24 05:00N 39°52' W 075°13'0 0.1
2017-Sep-24 04:30N 39°52' W 075°13'0 0.2
2017-Sep-24 04:00N 39°52' W 075°13'0 0.1
2017-Sep-24 03:30N 39°52' W 075°13'0 0.1
2017-Sep-24 03:00N 39°52' W 075°13'0 0.1
2017-Sep-24 02:31N 39°52' W 075°13'0 0.0
2017-Sep-24 02:01N 39°52' W 075°13'0 0.0
2017-Sep-24 01:31N 39°52' W 075°13'0 0.0
2017-Sep-24 01:01N 39°52' W 075°13'0 0.0
2017-Sep-24 00:31N 39°52' W 075°13'0 0.0
2017-Sep-24 00:00N 39°52' W 075°13'0 0.0
2017-Sep-23 23:30N 39°52' W 075°13'0 0.0
2017-Sep-23 23:01N 39°52' W 075°13'0 0.0
2017-Sep-23 22:30N 39°52' W 075°13'0 0.1
2017-Sep-23 22:01N 39°52' W 075°13'0 0.2
2017-Sep-23 21:30N 39°52' W 075°13'0 0.2
2017-Sep-23 21:00N 39°52' W 075°13'0 0.1
2017-Sep-23 20:30N 39°52' W 075°13'0 0.0
2017-Sep-23 20:00N 39°52' W 075°13'0 0.0
2017-Sep-22 02:00N 39°52' W 075°13'0 0.1
2017-Sep-22 01:30N 39°52' W 075°13'0 0.0
2017-Sep-22 01:00N 39°52' W 075°13'0 0.0
2017-Sep-22 00:30N 39°52' W 075°13'0 0.3
2017-Sep-22 00:00N 39°52' W 075°13'3 5.2
2017-Sep-21 23:30N 39°51' W 075°16'0 0.0
2017-Sep-21 23:00N 39°51' W 075°16'4 8.2
2017-Sep-21 22:30N 39°53' W 075°12'1 1.4
2017-Sep-21 22:00N 39°54' W 075°12'0 0.0
2017-Sep-21 21:30N 39°54' W 075°12'0 0.0
2017-Sep-21 21:00N 39°54' W 075°12'0 0.0
2017-Sep-21 20:30N 39°54' W 075°12'0 0.0
2017-Sep-21 20:00N 39°54' W 075°12'0 0.0
2017-Sep-21 19:30N 39°54' W 075°12'0 0.0
2017-Sep-21 19:00N 39°54' W 075°12'0 0.0
2017-Sep-21 18:30N 39°54' W 075°12'0 0.0
2017-Sep-21 18:00N 39°54' W 075°12'1 2.1
2017-Sep-21 17:31N 39°53' W 075°12'1 1.9
2017-Sep-21 17:01N 39°52' W 075°13'0 0.0
2017-Sep-21 16:31N 39°52' W 075°13'0 0.2
2017-Sep-21 16:01N 39°52' W 075°13'2 3.5
2017-Sep-21 15:30N 39°54' W 075°12'0 0.0
2017-Sep-21 15:00N 39°54' W 075°12'0 0.0
2017-Sep-21 14:30N 39°54' W 075°12'0 0.0
2017-Sep-21 14:00N 39°54' W 075°12'0 0.0
2017-Sep-21 13:30N 39°54' W 075°12'0 0.0
2017-Sep-21 13:00N 39°54' W 075°12'0 0.0
2017-Sep-21 12:30N 39°54' W 075°12'0 0.0
2017-Sep-21 12:00N 39°54' W 075°12'0 0.0
2017-Sep-21 11:30N 39°54' W 075°12'0 0.0
2017-Sep-21 11:00N 39°54' W 075°12'0 0.0
2017-Sep-21 10:30N 39°54' W 075°12'0 0.0
2017-Sep-21 10:01N 39°54' W 075°12'0 0.0
2017-Sep-21 09:30N 39°54' W 075°12'0 0.0
2017-Sep-21 09:00N 39°54' W 075°12'0 0.0
2017-Sep-21 08:30N 39°54' W 075°12'0 0.0
2017-Sep-21 08:00N 39°54' W 075°12'0 0.0
2017-Sep-21 07:30N 39°54' W 075°12'0 0.0
2017-Sep-21 07:00N 39°54' W 075°12'0 0.0
2017-Sep-21 06:30N 39°54' W 075°12'0 0.0
2017-Sep-21 06:00N 39°54' W 075°12'0 0.0
2017-Sep-21 05:30N 39°54' W 075°12'0 0.0
2017-Sep-21 05:01N 39°54' W 075°12'0 0.0
2017-Sep-21 04:30N 39°54' W 075°12'0 0.0
2017-Sep-21 04:00N 39°54' W 075°12'0 0.0
2017-Sep-21 03:30N 39°54' W 075°12'0 0.0
2017-Sep-21 03:00N 39°54' W 075°12'0 0.0
2017-Sep-21 02:31N 39°54' W 075°12'0 0.0
2017-Sep-21 02:01N 39°54' W 075°12'0 0.0
2017-Sep-21 01:31N 39°54' W 075°12'0 0.0
2017-Sep-21 01:00N 39°54' W 075°12'0 0.0
2017-Sep-21 00:30N 39°54' W 075°12'0 0.0
2017-Sep-21 00:01N 39°54' W 075°12'0 0.0
2017-Sep-20 23:31N 39°54' W 075°12'0 0.0
2017-Sep-20 23:00N 39°54' W 075°12'0 0.0
2017-Sep-20 22:31N 39°54' W 075°12'0 0.0
2017-Sep-20 22:00N 39°54' W 075°12'0 0.0
2017-Sep-20 21:30N 39°54' W 075°12'0 0.0
2017-Sep-20 21:00N 39°54' W 075°12'0 0.0
2017-Sep-20 20:30N 39°54' W 075°12'0 0.0
2017-Sep-20 20:00N 39°54' W 075°12'0 0.0
2017-Sep-20 19:30N 39°54' W 075°12'0 0.0
2017-Sep-20 19:00N 39°54' W 075°12'0 0.0
2017-Sep-20 18:31N 39°54' W 075°12'0 0.0
2017-Sep-20 18:00N 39°54' W 075°12'0 0.0
2017-Sep-20 17:31N 39°54' W 075°12'0 0.0
2017-Sep-20 17:01N 39°54' W 075°12'0 0.0
2017-Sep-20 16:31N 39°54' W 075°12'0 0.0
2017-Sep-20 16:00N 39°54' W 075°12'0 0.0
2017-Sep-20 15:31N 39°54' W 075°12'0 0.0
2017-Sep-20 15:01N 39°54' W 075°12'0 0.0
2017-Sep-20 14:00N 39°54' W 075°12'0 0.1
2017-Sep-20 13:31N 39°54' W 075°12'3 6.0
2017-Sep-20 13:01N 39°51' W 075°15'1 2.4
2017-Sep-20 12:30N 39°51' W 075°16'2 4.7
2017-Sep-20 12:01N 39°51' W 075°19'3 5.1
2017-Sep-20 11:30N 39°50' W 075°22'3 5.2
2017-Sep-20 11:01N 39°48' W 075°25'3 5.3
2017-Sep-20 10:31N 39°47' W 075°28'3 5.3
2017-Sep-20 10:01N 39°45' W 075°30'2 5.0
2017-Sep-20 09:31N 39°42' W 075°31'3 5.2
2017-Sep-20 09:00N 39°40' W 075°32'3 5.0
2017-Sep-20 08:31N 39°38' W 075°34'2 4.7
2017-Sep-20 08:01N 39°36' W 075°34'2 3.6
2017-Sep-20 07:31N 39°34' W 075°33'2 4.2
2017-Sep-20 07:01N 39°35' W 075°36'0 0.1
2017-Sep-20 06:31N 39°35' W 075°35'0 0.0
2017-Sep-20 06:01N 39°35' W 075°35'0 0.0
2017-Sep-20 05:30N 39°35' W 075°35'0 0.0
2017-Sep-20 05:00N 39°35' W 075°35'0 0.0
2017-Sep-20 04:31N 39°35' W 075°35'0 0.0
2017-Sep-20 04:01N 39°35' W 075°35'0 0.0
2017-Sep-20 03:31N 39°35' W 075°36'0 0.0
2017-Sep-20 03:01N 39°35' W 075°36'0 0.0
2017-Sep-20 02:30N 39°35' W 075°36'0 0.0
2017-Sep-20 02:01N 39°35' W 075°36'0 0.0
2017-Sep-20 01:30N 39°35' W 075°36'0 0.0
2017-Sep-20 01:00N 39°35' W 075°36'0 0.0
2017-Sep-20 00:30N 39°35' W 075°36'0 0.0
2017-Sep-20 00:01N 39°35' W 075°36'0 0.0
2017-Sep-19 23:31N 39°35' W 075°35'0 0.0
2017-Sep-19 23:00N 39°35' W 075°35'0 0.0
2017-Sep-19 22:31N 39°35' W 075°35'0 0.0
2017-Sep-19 22:00N 39°35' W 075°35'0 0.0
2017-Sep-19 21:30N 39°35' W 075°35'0 0.0
2017-Sep-19 21:00N 39°35' W 075°35'0 0.0
2017-Sep-19 20:30N 39°35' W 075°35'0 0.0
2017-Sep-19 20:00N 39°35' W 075°35'0 0.0
2017-Sep-19 19:31N 39°35' W 075°35'0 0.0
2017-Sep-19 19:01N 39°35' W 075°35'0 0.0
2017-Sep-19 18:30N 39°35' W 075°35'0 0.0
2017-Sep-19 18:00N 39°35' W 075°35'0 0.0
2017-Sep-19 17:31N 39°35' W 075°35'0 0.0
2017-Sep-19 17:00N 39°35' W 075°35'0 0.0
2017-Sep-19 16:31N 39°35' W 075°35'0 0.0
2017-Sep-19 16:01N 39°35' W 075°35'0 0.0
2017-Sep-19 15:31N 39°35' W 075°35'0 0.0
2017-Sep-19 15:01N 39°35' W 075°35'0 0.0
2017-Sep-19 14:31N 39°35' W 075°35'0 0.0
2017-Sep-19 14:01N 39°35' W 075°35'0 0.0
2017-Sep-19 13:31N 39°35' W 075°35'0 0.0
2017-Sep-19 13:01N 39°35' W 075°35'0 0.0
2017-Sep-19 12:31N 39°35' W 075°35'0 0.0
2017-Sep-19 12:00N 39°35' W 075°35'0 0.0
2017-Sep-19 11:31N 39°35' W 075°36'0 0.0
2017-Sep-19 11:01N 39°35' W 075°35'0 0.0
2017-Sep-19 10:31N 39°35' W 075°35'0 0.0
2017-Sep-19 10:01N 39°35' W 075°35'0 0.0
2017-Sep-19 09:31N 39°35' W 075°35'0 0.0
2017-Sep-19 09:00N 39°35' W 075°35'0 0.0
2017-Sep-19 08:31N 39°35' W 075°35'0 0.0
2017-Sep-19 08:00N 39°35' W 075°36'0 0.0
2017-Sep-19 07:30N 39°35' W 075°35'2 3.9
2017-Sep-19 07:00N 39°34' W 075°33'4 7.4
2017-Sep-19 06:30N 39°38' W 075°35'510.0
2017-Sep-19 06:01N 39°42' W 075°31'5 9.2
2017-Sep-19 05:30N 39°46' W 075°29'4 7.8
2017-Sep-19 05:00N 39°48' W 075°25'4 7.7
2017-Sep-19 04:30N 39°51' W 075°21'4 7.2
2017-Sep-19 04:00N 39°51' W 075°16'4 7.4
2017-Sep-19 03:30N 39°53' W 075°12'3 6.2
2017-Sep-19 03:00N 39°54' W 075°08'3 6.9
2017-Sep-19 02:30N 39°57' W 075°08'3 6.5
2017-Sep-19 02:00N 39°59' W 075°04'0 0.1
2017-Sep-19 01:30N 39°59' W 075°04'0 1.0
2017-Sep-19 01:00N 39°59' W 075°05'0 0.1
2017-Sep-19 00:30N 39°59' W 075°05'0 0.0
2017-Sep-19 00:00N 39°59' W 075°05'0 0.0
2017-Sep-18 23:30N 39°59' W 075°05'0 0.0
2017-Sep-18 23:00N 39°59' W 075°05'0 0.0
2017-Sep-18 22:30N 39°59' W 075°05'0 0.0
2017-Sep-18 22:01N 39°59' W 075°05'0 0.0
2017-Sep-18 21:30N 39°59' W 075°05'0 0.0
2017-Sep-18 21:00N 39°59' W 075°05'0 0.0
2017-Sep-18 20:30N 39°59' W 075°05'0 0.0
2017-Sep-18 20:00N 39°59' W 075°05'0 0.0
2017-Sep-18 19:30N 39°59' W 075°05'0 0.0
2017-Sep-18 19:00N 39°59' W 075°05'0 1.0
2017-Sep-18 18:30N 39°59' W 075°04'2 4.9
2017-Sep-18 18:00N 39°58' W 075°07'2 3.5
2017-Sep-18 17:30N 39°56' W 075°08'0 0.0
2017-Sep-18 17:01N 39°56' W 075°08'0 0.0
2017-Sep-18 16:30N 39°56' W 075°08'0 0.0
2017-Sep-18 16:00N 39°56' W 075°08'0 0.0
2017-Sep-18 15:30N 39°56' W 075°08'0 0.0
2017-Sep-18 15:00N 39°56' W 075°08'1 3.0
2017-Sep-18 14:30N 39°58' W 075°08'1 3.0
2017-Sep-18 14:00N 39°56' W 075°08'0 0.1
2017-Sep-18 13:30N 39°56' W 075°08'0 0.2
2017-Sep-18 13:00N 39°56' W 075°08'0 0.1
2017-Sep-18 12:30N 39°56' W 075°08'0 0.1
2017-Sep-18 12:00N 39°56' W 075°08'0 0.0
2017-Sep-18 11:30N 39°56' W 075°08'0 0.0
2017-Sep-18 11:00N 39°56' W 075°08'0 0.0
2017-Sep-18 10:30N 39°56' W 075°08'0 0.0
2017-Sep-18 10:01N 39°56' W 075°08'0 0.0
2017-Sep-18 09:30N 39°56' W 075°08'0 0.0
2017-Sep-18 09:00N 39°56' W 075°08'0 0.0
2017-Sep-18 08:30N 39°56' W 075°08'0 0.0
2017-Sep-18 08:00N 39°56' W 075°08'0 0.0
2017-Sep-18 07:30N 39°56' W 075°08'0 0.0
2017-Sep-18 07:00N 39°56' W 075°08'0 0.1
2017-Sep-18 06:30N 39°56' W 075°08'0 0.1
2017-Sep-18 06:00N 39°56' W 075°08'0 0.2
2017-Sep-18 05:30N 39°56' W 075°08'0 0.1
2017-Sep-18 05:00N 39°56' W 075°08'0 0.0
2017-Sep-18 04:30N 39°56' W 075°08'0 0.0
2017-Sep-18 04:00N 39°56' W 075°08'0 0.0
2017-Sep-18 03:30N 39°56' W 075°08'0 0.0
2017-Sep-18 03:00N 39°56' W 075°08'0 0.0
2017-Sep-18 02:30N 39°56' W 075°08'0 0.0
2017-Sep-18 02:00N 39°56' W 075°08'0 0.0
2017-Sep-18 01:30N 39°56' W 075°08'0 0.0
2017-Sep-18 01:00N 39°56' W 075°08'0 0.0
2017-Sep-18 00:30N 39°56' W 075°08'0 0.1
2017-Sep-18 00:01N 39°56' W 075°08'0 0.2
2017-Sep-17 23:30N 39°56' W 075°08'0 0.1
2017-Sep-17 23:00N 39°56' W 075°08'0 0.0
2017-Sep-17 22:30N 39°56' W 075°08'0 0.0
2017-Sep-17 22:00N 39°56' W 075°08'0 0.0
2017-Sep-17 21:31N 39°56' W 075°08'0 0.0
2017-Sep-17 21:00N 39°56' W 075°08'0 0.0
2017-Sep-17 20:31N 39°56' W 075°08'0 0.0
2017-Sep-17 20:00N 39°56' W 075°08'0 0.0
2017-Sep-17 19:30N 39°56' W 075°08'0 0.0
2017-Sep-17 19:00N 39°56' W 075°08'0 0.0
2017-Sep-17 18:30N 39°56' W 075°08'0 0.0
2017-Sep-17 18:01N 39°56' W 075°08'0 0.2
2017-Sep-17 17:30N 39°56' W 075°08'0 0.2
2017-Sep-17 17:01N 39°56' W 075°08'0 0.1
2017-Sep-17 16:30N 39°56' W 075°08'0 0.0
2017-Sep-17 16:00N 39°56' W 075°08'0 0.0
2017-Sep-17 15:31N 39°56' W 075°08'0 0.0
2017-Sep-17 15:00N 39°56' W 075°08'0 0.0
2017-Sep-17 14:30N 39°56' W 075°08'0 0.0
2017-Sep-17 14:00N 39°56' W 075°08'0 0.0
2017-Sep-17 13:31N 39°56' W 075°08'0 0.0
2017-Sep-17 13:00N 39°56' W 075°08'0 0.0
2017-Sep-17 12:31N 39°56' W 075°08'0 0.2
2017-Sep-17 12:00N 39°56' W 075°08'0 0.2
2017-Sep-17 11:30N 39°56' W 075°08'0 0.0
2017-Sep-17 11:00N 39°56' W 075°08'0 0.0
2017-Sep-17 10:30N 39°56' W 075°08'0 0.0
2017-Sep-17 10:00N 39°56' W 075°08'0 0.0
2017-Sep-17 09:30N 39°56' W 075°08'0 0.0
2017-Sep-17 09:00N 39°56' W 075°08'0 0.0
2017-Sep-17 08:30N 39°56' W 075°08'0 0.0
2017-Sep-17 08:00N 39°56' W 075°08'0 0.0
2017-Sep-17 07:30N 39°56' W 075°08'0 0.0
2017-Sep-17 07:00N 39°56' W 075°08'0 0.0
2017-Sep-17 06:30N 39°56' W 075°08'0 0.0
2017-Sep-17 06:01N 39°56' W 075°08'0 0.1
2017-Sep-17 05:30N 39°56' W 075°08'0 0.3
2017-Sep-17 05:01N 39°56' W 075°08'0 0.1
2017-Sep-17 04:30N 39°56' W 075°08'0 0.0
2017-Sep-17 04:00N 39°56' W 075°08'0 0.0
2017-Sep-17 03:30N 39°56' W 075°08'0 0.0
2017-Sep-17 03:00N 39°56' W 075°08'0 0.0
2017-Sep-17 02:31N 39°56' W 075°08'0 0.0
2017-Sep-17 02:01N 39°56' W 075°08'0 0.0
2017-Sep-17 01:30N 39°56' W 075°08'0 0.0
2017-Sep-17 01:00N 39°56' W 075°08'0 0.0
2017-Sep-17 00:30N 39°56' W 075°08'0 0.0
2017-Sep-17 00:00N 39°56' W 075°08'0 0.0
2017-Sep-16 23:30N 39°56' W 075°08'0 0.1
2017-Sep-16 23:00N 39°56' W 075°08'0 0.2
2017-Sep-16 22:30N 39°56' W 075°08'0 0.1
2017-Sep-16 22:00N 39°56' W 075°08'0 0.1
2017-Sep-16 21:30N 39°56' W 075°08'0 0.1
2017-Sep-16 21:00N 39°56' W 075°08'0 0.0
2017-Sep-16 20:30N 39°56' W 075°08'0 0.0
2017-Sep-16 20:00N 39°56' W 075°08'0 0.0
2017-Sep-16 19:30N 39°56' W 075°08'0 0.0
2017-Sep-16 19:00N 39°56' W 075°08'0 0.0
2017-Sep-16 18:31N 39°56' W 075°08'0 0.0
2017-Sep-16 18:00N 39°56' W 075°08'0 0.0
2017-Sep-16 17:30N 39°56' W 075°08'0 0.0
2017-Sep-16 17:00N 39°56' W 075°08'0 0.1
2017-Sep-16 16:30N 39°56' W 075°08'0 0.2
2017-Sep-16 16:00N 39°56' W 075°08'0 0.1
2017-Sep-16 15:30N 39°56' W 075°08'0 0.0
2017-Sep-16 15:00N 39°56' W 075°08'2 3.1
2017-Sep-16 14:30N 39°58' W 075°08'3 5.6
2017-Sep-16 14:00N 39°59' W 075°04'0 0.9
2017-Sep-16 13:31N 39°59' W 075°05'0 0.2
2017-Sep-16 13:01N 39°59' W 075°05'0 0.0
2017-Sep-16 12:30N 39°59' W 075°05'0 0.0
2017-Sep-16 12:00N 39°59' W 075°05'0 0.0
2017-Sep-16 11:31N 39°59' W 075°05'1 1.1
2017-Sep-16 11:00N 39°59' W 075°04'1 1.4
2017-Sep-16 10:30N 39°59' W 075°05'3 6.6
2017-Sep-16 10:00N 39°56' W 075°08'1 2.0
2017-Sep-16 09:30N 39°55' W 075°08'0 0.0
2017-Sep-16 09:00N 39°55' W 075°08'0 0.0
2017-Sep-16 08:30N 39°55' W 075°08'0 0.0
2017-Sep-16 08:00N 39°55' W 075°08'0 0.0
2017-Sep-16 07:30N 39°55' W 075°08'0 0.0
2017-Sep-16 07:00N 39°55' W 075°08'0 0.0
2017-Sep-16 06:31N 39°55' W 075°08'0 0.1
2017-Sep-16 06:01N 39°56' W 075°08'3 5.4
2017-Sep-16 05:31N 39°53' W 075°09'3 6.2
2017-Sep-16 05:00N 39°52' W 075°13'3 5.6
2017-Sep-16 04:31N 39°51' W 075°16'0 0.2
2017-Sep-16 04:00N 39°51' W 075°16'0 0.0
2017-Sep-16 03:30N 39°51' W 075°16'0 0.0
2017-Sep-16 03:01N 39°51' W 075°16'0 0.0
2017-Sep-16 02:30N 39°51' W 075°16'4 7.1
2017-Sep-16 02:01N 39°53' W 075°12'1 1.9
2017-Sep-16 01:30N 39°54' W 075°12'0 0.0
2017-Sep-16 01:01N 39°54' W 075°12'0 0.0
2017-Sep-16 00:30N 39°54' W 075°12'0 0.0
2017-Sep-16 00:01N 39°54' W 075°12'0 0.0
2017-Sep-15 23:30N 39°54' W 075°12'0 0.0
2017-Sep-15 23:00N 39°54' W 075°12'0 0.0
2017-Sep-15 22:30N 39°54' W 075°12'0 0.0
2017-Sep-15 22:00N 39°54' W 075°12'0 0.0
2017-Sep-15 21:31N 39°54' W 075°12'0 0.0
2017-Sep-15 21:00N 39°54' W 075°12'0 0.0
2017-Sep-15 20:31N 39°54' W 075°12'0 0.0
2017-Sep-15 20:00N 39°54' W 075°12'0 0.0
2017-Sep-15 19:30N 39°54' W 075°12'0 0.0
2017-Sep-15 19:01N 39°54' W 075°12'0 0.0
2017-Sep-15 18:31N 39°54' W 075°12'0 0.0
2017-Sep-15 18:01N 39°54' W 075°12'0 0.0
2017-Sep-15 17:31N 39°54' W 075°12'0 0.0
2017-Sep-15 17:00N 39°54' W 075°12'0 0.0
2017-Sep-15 16:30N 39°54' W 075°12'0 0.0
2017-Sep-15 16:01N 39°54' W 075°12'0 0.0
2017-Sep-15 15:30N 39°54' W 075°12'0 0.0
2017-Sep-15 15:00N 39°54' W 075°12'0 0.0
2017-Sep-15 14:30N 39°54' W 075°12'0 0.0
2017-Sep-15 14:00N 39°54' W 075°12'0 0.0
2017-Sep-15 13:31N 39°54' W 075°12'0 0.0
2017-Sep-15 13:00N 39°54' W 075°12'0 0.0
2017-Sep-15 12:30N 39°54' W 075°12'0 0.0
2017-Sep-15 12:00N 39°54' W 075°12'0 0.0
2017-Sep-15 11:31N 39°54' W 075°12'0 0.0
2017-Sep-15 11:00N 39°54' W 075°12'0 0.0
2017-Sep-15 10:30N 39°54' W 075°12'1 1.7
2017-Sep-15 10:01N 39°53' W 075°12'4 7.7
2017-Sep-15 09:30N 39°51' W 075°16'0 0.1
2017-Sep-15 09:01N 39°51' W 075°16'4 7.4
2017-Sep-15 08:30N 39°53' W 075°12'1 2.0
2017-Sep-15 08:01N 39°54' W 075°12'0 0.0
2017-Sep-15 07:31N 39°54' W 075°12'0 0.0
2017-Sep-15 07:00N 39°54' W 075°12'0 0.0
2017-Sep-15 06:31N 39°54' W 075°12'0 0.0
2017-Sep-15 06:00N 39°54' W 075°12'0 0.0
2017-Sep-15 05:31N 39°54' W 075°12'0 0.0
2017-Sep-15 05:00N 39°54' W 075°12'0 0.0
2017-Sep-15 04:30N 39°54' W 075°12'0 0.0
2017-Sep-15 04:00N 39°54' W 075°12'0 0.0
2017-Sep-15 03:31N 39°54' W 075°12'0 0.0
2017-Sep-15 03:01N 39°54' W 075°12'0 0.0
2017-Sep-15 02:31N 39°54' W 075°12'0 0.0
2017-Sep-15 02:00N 39°54' W 075°12'0 0.0
2017-Sep-15 01:31N 39°54' W 075°12'0 0.0
2017-Sep-15 01:00N 39°54' W 075°12'0 0.0
2017-Sep-15 00:31N 39°54' W 075°12'0 0.0
2017-Sep-15 00:01N 39°54' W 075°12'0 0.0
2017-Sep-14 23:31N 39°54' W 075°12'0 0.0
2017-Sep-14 23:01N 39°54' W 075°12'0 0.0
2017-Sep-14 22:31N 39°54' W 075°12'0 0.0
2017-Sep-14 22:01N 39°54' W 075°12'0 0.0
2017-Sep-14 21:31N 39°54' W 075°12'0 0.0
2017-Sep-14 21:00N 39°54' W 075°12'0 0.0
2017-Sep-14 20:31N 39°54' W 075°12'0 0.0
2017-Sep-14 20:01N 39°54' W 075°12'0 0.0
2017-Sep-14 19:31N 39°54' W 075°12'0 0.0
2017-Sep-14 19:01N 39°54' W 075°12'0 0.0
2017-Sep-14 18:31N 39°54' W 075°12'0 0.0
2017-Sep-14 18:01N 39°54' W 075°12'0 0.0
2017-Sep-14 17:31N 39°54' W 075°12'0 0.0
2017-Sep-14 17:00N 39°54' W 075°12'0 0.0
2017-Sep-14 16:30N 39°54' W 075°12'0 0.0
2017-Sep-14 16:01N 39°54' W 075°12'0 0.0
2017-Sep-14 15:31N 39°54' W 075°12'0 0.0
2017-Sep-14 15:00N 39°54' W 075°12'0 0.0
2017-Sep-14 14:30N 39°54' W 075°12'0 0.0
2017-Sep-14 14:01N 39°54' W 075°12'0 0.0
2017-Sep-14 13:30N 39°54' W 075°12'0 0.0
2017-Sep-14 13:00N 39°54' W 075°12'0 0.0
2017-Sep-14 12:30N 39°54' W 075°12'0 0.0
2017-Sep-14 12:00N 39°54' W 075°12'0 0.0
2017-Sep-14 11:30N 39°54' W 075°12'0 0.0
2017-Sep-14 11:00N 39°54' W 075°12'0 0.0
2017-Sep-14 10:30N 39°54' W 075°12'  
Track history (hours):
 
Tides and Currents Weather Stations Pressure Air Temp Water Temp Dewpoint Dewpoint Depression Visibility Wind Speed Wind Dir Waves Ship Positions

Baltimore

Last reported at 2017-Sep-24 10:01 UTC. Time now 2017-Sep-24 10:24 UTC.
Position N 39°52' W 075°13'.

Length 33 m.

Type: Tug. MMSI: 338602000.

Date/timePositionNaut miles runAvg speedWind from/ knotsBaromVisibWave heightAir tempDewpointWater temp
2017-Sep-24 10:01N 39°52' W 075°13'0 0.1
2017-Sep-24 09:31N 39°52' W 075°13'0 0.0
2017-Sep-24 09:01N 39°52' W 075°13'0 0.0
2017-Sep-24 08:30N 39°52' W 075°13'0 0.0
2017-Sep-24 08:00N 39°52' W 075°13'0 0.0
2017-Sep-24 07:31N 39°52' W 075°13'0 0.0
2017-Sep-24 07:00N 39°52' W 075°13'0 0.0
2017-Sep-24 06:30N 39°52' W 075°13'0 0.0
2017-Sep-24 06:00N 39°52' W 075°13'0 0.0
2017-Sep-24 05:31N 39°52' W 075°13'0 0.0
2017-Sep-24 05:00N 39°52' W 075°13'0 0.1
2017-Sep-24 04:30N 39°52' W 075°13'0 0.2
2017-Sep-24 04:00N 39°52' W 075°13'0 0.1
2017-Sep-24 03:30N 39°52' W 075°13'0 0.1
2017-Sep-24 03:00N 39°52' W 075°13'0 0.1
2017-Sep-24 02:31N 39°52' W 075°13'0 0.0
2017-Sep-24 02:01N 39°52' W 075°13'0 0.0
2017-Sep-24 01:31N 39°52' W 075°13'0 0.0
2017-Sep-24 01:01N 39°52' W 075°13'0 0.0
2017-Sep-24 00:31N 39°52' W 075°13'0 0.0
2017-Sep-24 00:00N 39°52' W 075°13'0 0.0
2017-Sep-23 23:30N 39°52' W 075°13'0 0.0
2017-Sep-23 23:01N 39°52' W 075°13'0 0.0
2017-Sep-23 22:30N 39°52' W 075°13'0 0.1
2017-Sep-23 22:01N 39°52' W 075°13'0 0.2
2017-Sep-23 21:30N 39°52' W 075°13'0 0.2
2017-Sep-23 21:00N 39°52' W 075°13'0 0.1
2017-Sep-23 20:30N 39°52' W 075°13'0 0.0
2017-Sep-23 20:00N 39°52' W 075°13'0 0.0
2017-Sep-22 02:00N 39°52' W 075°13'0 0.1
2017-Sep-22 01:30N 39°52' W 075°13'0 0.0
2017-Sep-22 01:00N 39°52' W 075°13'0 0.0
2017-Sep-22 00:30N 39°52' W 075°13'0 0.3
2017-Sep-22 00:00N 39°52' W 075°13'3 5.2
2017-Sep-21 23:30N 39°51' W 075°16'0 0.0
2017-Sep-21 23:00N 39°51' W 075°16'4 8.2
2017-Sep-21 22:30N 39°53' W 075°12'1 1.4
2017-Sep-21 22:00N 39°54' W 075°12'0 0.0
2017-Sep-21 21:30N 39°54' W 075°12'0 0.0
2017-Sep-21 21:00N 39°54' W 075°12'0 0.0
2017-Sep-21 20:30N 39°54' W 075°12'0 0.0
2017-Sep-21 20:00N 39°54' W 075°12'0 0.0
2017-Sep-21 19:30N 39°54' W 075°12'0 0.0
2017-Sep-21 19:00N 39°54' W 075°12'0 0.0
2017-Sep-21 18:30N 39°54' W 075°12'0 0.0
2017-Sep-21 18:00N 39°54' W 075°12'1 2.1
2017-Sep-21 17:31N 39°53' W 075°12'1 1.9
2017-Sep-21 17:01N 39°52' W 075°13'0 0.0
2017-Sep-21 16:31N 39°52' W 075°13'0 0.2
2017-Sep-21 16:01N 39°52' W 075°13'2 3.5
2017-Sep-21 15:30N 39°54' W 075°12'0 0.0
2017-Sep-21 15:00N 39°54' W 075°12'0 0.0
2017-Sep-21 14:30N 39°54' W 075°12'0 0.0
2017-Sep-21 14:00N 39°54' W 075°12'0 0.0
2017-Sep-21 13:30N 39°54' W 075°12'0 0.0
2017-Sep-21 13:00N 39°54' W 075°12'0 0.0
2017-Sep-21 12:30N 39°54' W 075°12'0 0.0
2017-Sep-21 12:00N 39°54' W 075°12'0 0.0
2017-Sep-21 11:30N 39°54' W 075°12'0 0.0
2017-Sep-21 11:00N 39°54' W 075°12'0 0.0
2017-Sep-21 10:30N 39°54' W 075°12'0 0.0
2017-Sep-21 10:01N 39°54' W 075°12'0 0.0
2017-Sep-21 09:30N 39°54' W 075°12'0 0.0
2017-Sep-21 09:00N 39°54' W 075°12'0 0.0
2017-Sep-21 08:30N 39°54' W 075°12'0 0.0
2017-Sep-21 08:00N 39°54' W 075°12'0 0.0
2017-Sep-21 07:30N 39°54' W 075°12'0 0.0
2017-Sep-21 07:00N 39°54' W 075°12'0 0.0
2017-Sep-21 06:30N 39°54' W 075°12'0 0.0
2017-Sep-21 06:00N 39°54' W 075°12'0 0.0
2017-Sep-21 05:30N 39°54' W 075°12'0 0.0
2017-Sep-21 05:01N 39°54' W 075°12'0 0.0
2017-Sep-21 04:30N 39°54' W 075°12'0 0.0
2017-Sep-21 04:00N 39°54' W 075°12'0 0.0
2017-Sep-21 03:30N 39°54' W 075°12'0 0.0
2017-Sep-21 03:00N 39°54' W 075°12'0 0.0
2017-Sep-21 02:31N 39°54' W 075°12'0 0.0
2017-Sep-21 02:01N 39°54' W 075°12'0 0.0
2017-Sep-21 01:31N 39°54' W 075°12'0 0.0
2017-Sep-21 01:00N 39°54' W 075°12'0 0.0
2017-Sep-21 00:30N 39°54' W 075°12'0 0.0
2017-Sep-21 00:01N 39°54' W 075°12'0 0.0
2017-Sep-20 23:31N 39°54' W 075°12'0 0.0
2017-Sep-20 23:00N 39°54' W 075°12'0 0.0
2017-Sep-20 22:31N 39°54' W 075°12'0 0.0
2017-Sep-20 22:00N 39°54' W 075°12'0 0.0
2017-Sep-20 21:30N 39°54' W 075°12'0 0.0
2017-Sep-20 21:00N 39°54' W 075°12'0 0.0
2017-Sep-20 20:30N 39°54' W 075°12'0 0.0
2017-Sep-20 20:00N 39°54' W 075°12'0 0.0
2017-Sep-20 19:30N 39°54' W 075°12'0 0.0
2017-Sep-20 19:00N 39°54' W 075°12'0 0.0
2017-Sep-20 18:31N 39°54' W 075°12'0 0.0
2017-Sep-20 18:00N 39°54' W 075°12'0 0.0
2017-Sep-20 17:31N 39°54' W 075°12'0 0.0
2017-Sep-20 17:01N 39°54' W 075°12'0 0.0
2017-Sep-20 16:31N 39°54' W 075°12'0 0.0
2017-Sep-20 16:00N 39°54' W 075°12'0 0.0
2017-Sep-20 15:31N 39°54' W 075°12'0 0.0
2017-Sep-20 15:01N 39°54' W 075°12'0 0.0
2017-Sep-20 14:00N 39°54' W 075°12'0 0.1
2017-Sep-20 13:31N 39°54' W 075°12'3 6.0
2017-Sep-20 13:01N 39°51' W 075°15'1 2.4
2017-Sep-20 12:30N 39°51' W 075°16'2 4.7
2017-Sep-20 12:01N 39°51' W 075°19'3 5.1
2017-Sep-20 11:30N 39°50' W 075°22'3 5.2
2017-Sep-20 11:01N 39°48' W 075°25'3 5.3
2017-Sep-20 10:31N 39°47' W 075°28'3 5.3
2017-Sep-20 10:01N 39°45' W 075°30'2 5.0
2017-Sep-20 09:31N 39°42' W 075°31'3 5.2
2017-Sep-20 09:00N 39°40' W 075°32'3 5.0
2017-Sep-20 08:31N 39°38' W 075°34'2 4.7
2017-Sep-20 08:01N 39°36' W 075°34'2 3.6
2017-Sep-20 07:31N 39°34' W 075°33'2 4.2
2017-Sep-20 07:01N 39°35' W 075°36'0 0.1
2017-Sep-20 06:31N 39°35' W 075°35'0 0.0
2017-Sep-20 06:01N 39°35' W 075°35'0 0.0
2017-Sep-20 05:30N 39°35' W 075°35'0 0.0
2017-Sep-20 05:00N 39°35' W 075°35'0 0.0
2017-Sep-20 04:31N 39°35' W 075°35'0 0.0
2017-Sep-20 04:01N 39°35' W 075°35'0 0.0
2017-Sep-20 03:31N 39°35' W 075°36'0 0.0
2017-Sep-20 03:01N 39°35' W 075°36'0 0.0
2017-Sep-20 02:30N 39°35' W 075°36'0 0.0
2017-Sep-20 02:01N 39°35' W 075°36'0 0.0
2017-Sep-20 01:30N 39°35' W 075°36'0 0.0
2017-Sep-20 01:00N 39°35' W 075°36'0 0.0
2017-Sep-20 00:30N 39°35' W 075°36'0 0.0
2017-Sep-20 00:01N 39°35' W 075°36'0 0.0
2017-Sep-19 23:31N 39°35' W 075°35'0 0.0
2017-Sep-19 23:00N 39°35' W 075°35'0 0.0
2017-Sep-19 22:31N 39°35' W 075°35'0 0.0
2017-Sep-19 22:00N 39°35' W 075°35'0 0.0
2017-Sep-19 21:30N 39°35' W 075°35'0 0.0
2017-Sep-19 21:00N 39°35' W 075°35'0 0.0
2017-Sep-19 20:30N 39°35' W 075°35'0 0.0
2017-Sep-19 20:00N 39°35' W 075°35'0 0.0
2017-Sep-19 19:31N 39°35' W 075°35'0 0.0
2017-Sep-19 19:01N 39°35' W 075°35'0 0.0
2017-Sep-19 18:30N 39°35' W 075°35'0 0.0
2017-Sep-19 18:00N 39°35' W 075°35'0 0.0
2017-Sep-19 17:31N 39°35' W 075°35'0 0.0
2017-Sep-19 17:00N 39°35' W 075°35'0 0.0
2017-Sep-19 16:31N 39°35' W 075°35'0 0.0
2017-Sep-19 16:01N 39°35' W 075°35'0 0.0
2017-Sep-19 15:31N 39°35' W 075°35'0 0.0
2017-Sep-19 15:01N 39°35' W 075°35'0 0.0
2017-Sep-19 14:31N 39°35' W 075°35'0 0.0
2017-Sep-19 14:01N 39°35' W 075°35'0 0.0
2017-Sep-19 13:31N 39°35' W 075°35'0 0.0
2017-Sep-19 13:01N 39°35' W 075°35'0 0.0
2017-Sep-19 12:31N 39°35' W 075°35'0 0.0
2017-Sep-19 12:00N 39°35' W 075°35'0 0.0
2017-Sep-19 11:31N 39°35' W 075°36'0 0.0
2017-Sep-19 11:01N 39°35' W 075°35'0 0.0
2017-Sep-19 10:31N 39°35' W 075°35'0 0.0
2017-Sep-19 10:01N 39°35' W 075°35'0 0.0
2017-Sep-19 09:31N 39°35' W 075°35'0 0.0
2017-Sep-19 09:00N 39°35' W 075°35'0 0.0
2017-Sep-19 08:31N 39°35' W 075°35'0 0.0
2017-Sep-19 08:00N 39°35' W 075°36'0 0.0
2017-Sep-19 07:30N 39°35' W 075°35'2 3.9
2017-Sep-19 07:00N 39°34' W 075°33'4 7.4
2017-Sep-19 06:30N 39°38' W 075°35'510.0
2017-Sep-19 06:01N 39°42' W 075°31'5 9.2
2017-Sep-19 05:30N 39°46' W 075°29'4 7.8
2017-Sep-19 05:00N 39°48' W 075°25'4 7.7
2017-Sep-19 04:30N 39°51' W 075°21'4 7.2
2017-Sep-19 04:00N 39°51' W 075°16'4 7.4
2017-Sep-19 03:30N 39°53' W 075°12'3 6.2
2017-Sep-19 03:00N 39°54' W 075°08'3 6.9
2017-Sep-19 02:30N 39°57' W 075°08'3 6.5
2017-Sep-19 02:00N 39°59' W 075°04'0 0.1
2017-Sep-19 01:30N 39°59' W 075°04'0 1.0
2017-Sep-19 01:00N 39°59' W 075°05'0 0.1
2017-Sep-19 00:30N 39°59' W 075°05'0 0.0
2017-Sep-19 00:00N 39°59' W 075°05'0 0.0
2017-Sep-18 23:30N 39°59' W 075°05'0 0.0
2017-Sep-18 23:00N 39°59' W 075°05'0 0.0
2017-Sep-18 22:30N 39°59' W 075°05'0 0.0
2017-Sep-18 22:01N 39°59' W 075°05'0 0.0
2017-Sep-18 21:30N 39°59' W 075°05'0 0.0
2017-Sep-18 21:00N 39°59' W 075°05'0 0.0
2017-Sep-18 20:30N 39°59' W 075°05'0 0.0
2017-Sep-18 20:00N 39°59' W 075°05'0 0.0
2017-Sep-18 19:30N 39°59' W 075°05'0 0.0
2017-Sep-18 19:00N 39°59' W 075°05'0 1.0
2017-Sep-18 18:30N 39°59' W 075°04'2 4.9
2017-Sep-18 18:00N 39°58' W 075°07'2 3.5
2017-Sep-18 17:30N 39°56' W 075°08'0 0.0
2017-Sep-18 17:01N 39°56' W 075°08'0 0.0
2017-Sep-18 16:30N 39°56' W 075°08'0 0.0
2017-Sep-18 16:00N 39°56' W 075°08'0 0.0
2017-Sep-18 15:30N 39°56' W 075°08'0 0.0
2017-Sep-18 15:00N 39°56' W 075°08'1 3.0
2017-Sep-18 14:30N 39°58' W 075°08'1 3.0
2017-Sep-18 14:00N 39°56' W 075°08'0 0.1
2017-Sep-18 13:30N 39°56' W 075°08'0 0.2
2017-Sep-18 13:00N 39°56' W 075°08'0 0.1
2017-Sep-18 12:30N 39°56' W 075°08'0 0.1
2017-Sep-18 12:00N 39°56' W 075°08'0 0.0
2017-Sep-18 11:30N 39°56' W 075°08'0 0.0
2017-Sep-18 11:00N 39°56' W 075°08'0 0.0
2017-Sep-18 10:30N 39°56' W 075°08'0 0.0
2017-Sep-18 10:01N 39°56' W 075°08'0 0.0
2017-Sep-18 09:30N 39°56' W 075°08'0 0.0
2017-Sep-18 09:00N 39°56' W 075°08'0 0.0
2017-Sep-18 08:30N 39°56' W 075°08'0 0.0
2017-Sep-18 08:00N 39°56' W 075°08'0 0.0
2017-Sep-18 07:30N 39°56' W 075°08'0 0.0
2017-Sep-18 07:00N 39°56' W 075°08'0 0.1
2017-Sep-18 06:30N 39°56' W 075°08'0 0.1
2017-Sep-18 06:00N 39°56' W 075°08'0 0.2
2017-Sep-18 05:30N 39°56' W 075°08'0 0.1
2017-Sep-18 05:00N 39°56' W 075°08'0 0.0
2017-Sep-18 04:30N 39°56' W 075°08'0 0.0
2017-Sep-18 04:00N 39°56' W 075°08'0 0.0
2017-Sep-18 03:30N 39°56' W 075°08'0 0.0
2017-Sep-18 03:00N 39°56' W 075°08'0 0.0
2017-Sep-18 02:30N 39°56' W 075°08'0 0.0
2017-Sep-18 02:00N 39°56' W 075°08'0 0.0
2017-Sep-18 01:30N 39°56' W 075°08'0 0.0
2017-Sep-18 01:00N 39°56' W 075°08'0 0.0
2017-Sep-18 00:30N 39°56' W 075°08'0 0.1
2017-Sep-18 00:01N 39°56' W 075°08'0 0.2
2017-Sep-17 23:30N 39°56' W 075°08'0 0.1
2017-Sep-17 23:00N 39°56' W 075°08'0 0.0
2017-Sep-17 22:30N 39°56' W 075°08'0 0.0
2017-Sep-17 22:00N 39°56' W 075°08'0 0.0
2017-Sep-17 21:31N 39°56' W 075°08'0 0.0
2017-Sep-17 21:00N 39°56' W 075°08'0 0.0
2017-Sep-17 20:31N 39°56' W 075°08'0 0.0
2017-Sep-17 20:00N 39°56' W 075°08'0 0.0
2017-Sep-17 19:30N 39°56' W 075°08'0 0.0
2017-Sep-17 19:00N 39°56' W 075°08'0 0.0
2017-Sep-17 18:30N 39°56' W 075°08'0 0.0
2017-Sep-17 18:01N 39°56' W 075°08'0 0.2
2017-Sep-17 17:30N 39°56' W 075°08'0 0.2
2017-Sep-17 17:01N 39°56' W 075°08'0 0.1
2017-Sep-17 16:30N 39°56' W 075°08'0 0.0
2017-Sep-17 16:00N 39°56' W 075°08'0 0.0
2017-Sep-17 15:31N 39°56' W 075°08'0 0.0
2017-Sep-17 15:00N 39°56' W 075°08'0 0.0
2017-Sep-17 14:30N 39°56' W 075°08'0 0.0
2017-Sep-17 14:00N 39°56' W 075°08'0 0.0
2017-Sep-17 13:31N 39°56' W 075°08'0 0.0
2017-Sep-17 13:00N 39°56' W 075°08'0 0.0
2017-Sep-17 12:31N 39°56' W 075°08'0 0.2
2017-Sep-17 12:00N 39°56' W 075°08'0 0.2
2017-Sep-17 11:30N 39°56' W 075°08'0 0.0
2017-Sep-17 11:00N 39°56' W 075°08'0 0.0
2017-Sep-17 10:30N 39°56' W 075°08'0 0.0
2017-Sep-17 10:00N 39°56' W 075°08'0 0.0
2017-Sep-17 09:30N 39°56' W 075°08'0 0.0
2017-Sep-17 09:00N 39°56' W 075°08'0 0.0
2017-Sep-17 08:30N 39°56' W 075°08'0 0.0
2017-Sep-17 08:00N 39°56' W 075°08'0 0.0
2017-Sep-17 07:30N 39°56' W 075°08'0 0.0
2017-Sep-17 07:00N 39°56' W 075°08'0 0.0
2017-Sep-17 06:30N 39°56' W 075°08'0 0.0
2017-Sep-17 06:01N 39°56' W 075°08'0 0.1
2017-Sep-17 05:30N 39°56' W 075°08'0 0.3
2017-Sep-17 05:01N 39°56' W 075°08'0 0.1
2017-Sep-17 04:30N 39°56' W 075°08'0 0.0
2017-Sep-17 04:00N 39°56' W 075°08'0 0.0
2017-Sep-17 03:30N 39°56' W 075°08'0 0.0
2017-Sep-17 03:00N 39°56' W 075°08'0 0.0
2017-Sep-17 02:31N 39°56' W 075°08'0 0.0
2017-Sep-17 02:01N 39°56' W 075°08'0 0.0
2017-Sep-17 01:30N 39°56' W 075°08'0 0.0
2017-Sep-17 01:00N 39°56' W 075°08'0 0.0
2017-Sep-17 00:30N 39°56' W 075°08'0 0.0
2017-Sep-17 00:00N 39°56' W 075°08'0 0.0
2017-Sep-16 23:30N 39°56' W 075°08'0 0.1
2017-Sep-16 23:00N 39°56' W 075°08'0 0.2
2017-Sep-16 22:30N 39°56' W 075°08'0 0.1
2017-Sep-16 22:00N 39°56' W 075°08'0 0.1
2017-Sep-16 21:30N 39°56' W 075°08'0 0.1
2017-Sep-16 21:00N 39°56' W 075°08'0 0.0
2017-Sep-16 20:30N 39°56' W 075°08'0 0.0
2017-Sep-16 20:00N 39°56' W 075°08'0 0.0
2017-Sep-16 19:30N 39°56' W 075°08'0 0.0
2017-Sep-16 19:00N 39°56' W 075°08'0 0.0
2017-Sep-16 18:31N 39°56' W 075°08'0 0.0
2017-Sep-16 18:00N 39°56' W 075°08'0 0.0
2017-Sep-16 17:30N 39°56' W 075°08'0 0.0
2017-Sep-16 17:00N 39°56' W 075°08'0 0.1
2017-Sep-16 16:30N 39°56' W 075°08'0 0.2
2017-Sep-16 16:00N 39°56' W 075°08'0 0.1
2017-Sep-16 15:30N 39°56' W 075°08'0 0.0
2017-Sep-16 15:00N 39°56' W 075°08'2 3.1
2017-Sep-16 14:30N 39°58' W 075°08'3 5.6
2017-Sep-16 14:00N 39°59' W 075°04'0 0.9
2017-Sep-16 13:31N 39°59' W 075°05'0 0.2
2017-Sep-16 13:01N 39°59' W 075°05'0 0.0
2017-Sep-16 12:30N 39°59' W 075°05'0 0.0
2017-Sep-16 12:00N 39°59' W 075°05'0 0.0
2017-Sep-16 11:31N 39°59' W 075°05'1 1.1
2017-Sep-16 11:00N 39°59' W 075°04'1 1.4
2017-Sep-16 10:30N 39°59' W 075°05'3 6.6
2017-Sep-16 10:00N 39°56' W 075°08'1 2.0
2017-Sep-16 09:30N 39°55' W 075°08'0 0.0
2017-Sep-16 09:00N 39°55' W 075°08'0 0.0
2017-Sep-16 08:30N 39°55' W 075°08'0 0.0
2017-Sep-16 08:00N 39°55' W 075°08'0 0.0
2017-Sep-16 07:30N 39°55' W 075°08'0 0.0
2017-Sep-16 07:00N 39°55' W 075°08'0 0.0
2017-Sep-16 06:31N 39°55' W 075°08'0 0.1
2017-Sep-16 06:01N 39°56' W 075°08'3 5.4
2017-Sep-16 05:31N 39°53' W 075°09'3 6.2
2017-Sep-16 05:00N 39°52' W 075°13'3 5.6
2017-Sep-16 04:31N 39°51' W 075°16'0 0.2
2017-Sep-16 04:00N 39°51' W 075°16'0 0.0
2017-Sep-16 03:30N 39°51' W 075°16'0 0.0
2017-Sep-16 03:01N 39°51' W 075°16'0 0.0
2017-Sep-16 02:30N 39°51' W 075°16'4 7.1
2017-Sep-16 02:01N 39°53' W 075°12'1 1.9
2017-Sep-16 01:30N 39°54' W 075°12'0 0.0
2017-Sep-16 01:01N 39°54' W 075°12'0 0.0
2017-Sep-16 00:30N 39°54' W 075°12'0 0.0
2017-Sep-16 00:01N 39°54' W 075°12'0 0.0
2017-Sep-15 23:30N 39°54' W 075°12'0 0.0
2017-Sep-15 23:00N 39°54' W 075°12'0 0.0
2017-Sep-15 22:30N 39°54' W 075°12'0 0.0
2017-Sep-15 22:00N 39°54' W 075°12'0 0.0
2017-Sep-15 21:31N 39°54' W 075°12'0 0.0
2017-Sep-15 21:00N 39°54' W 075°12'0 0.0
2017-Sep-15 20:31N 39°54' W 075°12'0 0.0
2017-Sep-15 20:00N 39°54' W 075°12'0 0.0
2017-Sep-15 19:30N 39°54' W 075°12'0 0.0
2017-Sep-15 19:01N 39°54' W 075°12'0 0.0
2017-Sep-15 18:31N 39°54' W 075°12'0 0.0
2017-Sep-15 18:01N 39°54' W 075°12'0 0.0
2017-Sep-15 17:31N 39°54' W 075°12'0 0.0
2017-Sep-15 17:00N 39°54' W 075°12'0 0.0
2017-Sep-15 16:30N 39°54' W 075°12'0 0.0
2017-Sep-15 16:01N 39°54' W 075°12'0 0.0
2017-Sep-15 15:30N 39°54' W 075°12'0 0.0
2017-Sep-15 15:00N 39°54' W 075°12'0 0.0
2017-Sep-15 14:30N 39°54' W 075°12'0 0.0
2017-Sep-15 14:00N 39°54' W 075°12'0 0.0
2017-Sep-15 13:31N 39°54' W 075°12'0 0.0
2017-Sep-15 13:00N 39°54' W 075°12'0 0.0
2017-Sep-15 12:30N 39°54' W 075°12'0 0.0
2017-Sep-15 12:00N 39°54' W 075°12'0 0.0
2017-Sep-15 11:31N 39°54' W 075°12'0 0.0
2017-Sep-15 11:00N 39°54' W 075°12'0 0.0
2017-Sep-15 10:30N 39°54' W 075°12'1 1.7
2017-Sep-15 10:01N 39°53' W 075°12'4 7.7
2017-Sep-15 09:30N 39°51' W 075°16'0 0.1
2017-Sep-15 09:01N 39°51' W 075°16'4 7.4
2017-Sep-15 08:30N 39°53' W 075°12'1 2.0
2017-Sep-15 08:01N 39°54' W 075°12'0 0.0
2017-Sep-15 07:31N 39°54' W 075°12'0 0.0
2017-Sep-15 07:00N 39°54' W 075°12'0 0.0
2017-Sep-15 06:31N 39°54' W 075°12'0 0.0
2017-Sep-15 06:00N 39°54' W 075°12'0 0.0
2017-Sep-15 05:31N 39°54' W 075°12'0 0.0
2017-Sep-15 05:00N 39°54' W 075°12'0 0.0
2017-Sep-15 04:30N 39°54' W 075°12'0 0.0
2017-Sep-15 04:00N 39°54' W 075°12'0 0.0
2017-Sep-15 03:31N 39°54' W 075°12'0 0.0
2017-Sep-15 03:01N 39°54' W 075°12'0 0.0
2017-Sep-15 02:31N 39°54' W 075°12'0 0.0
2017-Sep-15 02:00N 39°54' W 075°12'0 0.0
2017-Sep-15 01:31N 39°54' W 075°12'0 0.0
2017-Sep-15 01:00N 39°54' W 075°12'0 0.0
2017-Sep-15 00:31N 39°54' W 075°12'0 0.0
2017-Sep-15 00:01N 39°54' W 075°12'0 0.0
2017-Sep-14 23:31N 39°54' W 075°12'0 0.0
2017-Sep-14 23:01N 39°54' W 075°12'0 0.0
2017-Sep-14 22:31N 39°54' W 075°12'0 0.0
2017-Sep-14 22:01N 39°54' W 075°12'0 0.0
2017-Sep-14 21:31N 39°54' W 075°12'0 0.0
2017-Sep-14 21:00N 39°54' W 075°12'0 0.0
2017-Sep-14 20:31N 39°54' W 075°12'0 0.0
2017-Sep-14 20:01N 39°54' W 075°12'0 0.0
2017-Sep-14 19:31N 39°54' W 075°12'0 0.0
2017-Sep-14 19:01N 39°54' W 075°12'0 0.0
2017-Sep-14 18:31N 39°54' W 075°12'0 0.0
2017-Sep-14 18:01N 39°54' W 075°12'0 0.0
2017-Sep-14 17:31N 39°54' W 075°12'0 0.0
2017-Sep-14 17:00N 39°54' W 075°12'0 0.0
2017-Sep-14 16:30N 39°54' W 075°12'0 0.0
2017-Sep-14 16:01N 39°54' W 075°12'0 0.0
2017-Sep-14 15:31N 39°54' W 075°12'0 0.0
2017-Sep-14 15:00N 39°54' W 075°12'0 0.0
2017-Sep-14 14:30N 39°54' W 075°12'0 0.0
2017-Sep-14 14:01N 39°54' W 075°12'0 0.0
2017-Sep-14 13:30N 39°54' W 075°12'0 0.0
2017-Sep-14 13:00N 39°54' W 075°12'0 0.0
2017-Sep-14 12:30N 39°54' W 075°12'0 0.0
2017-Sep-14 12:00N 39°54' W 075°12'0 0.0
2017-Sep-14 11:30N 39°54' W 075°12'0 0.0
2017-Sep-14 11:00N 39°54' W 075°12'0 0.0
2017-Sep-14 10:30N 39°54' W 075°12'  

Dump ship's entire track history